Time;durP1;ratioP1;P1;durP2;ratioP2;P2;SDS_P1;SDS_P2;PMS_P1;PMS_P2;Temp;Humidity;BMP_temperature;BMP_pressure;BME280_temperature;BME280_humidity;BME280_pressure;Samples;Min_cycle;Max_cycle;Signal;HPM_P1;HPM_P2
2022/04/26 03:37:20;;;;;;;;;21.25;20.50;;;;;11.22;41.40;101079.00;4983388;28;45669;-57
2022/04/26 03:39:46;;;;;;;;;26.00;23.00;;;;;11.23;41.54;101085.97;4983048;28;45250;-57
2022/04/26 03:42:12;;;;;;;;;23.00;21.00;;;;;11.21;41.59;101087.78;4983548;28;45391;-57
2022/04/26 03:44:37;;;;;;;;;27.25;23.25;;;;;11.20;41.73;101086.03;4983232;28;45532;-57
2022/04/26 03:47:03;;;;;;;;;25.25;23.25;;;;;11.17;41.64;101084.31;4962226;28;47254;-57
2022/04/26 03:49:29;;;;;;;;;25.50;21.75;;;;;11.16;41.55;101079.06;4994040;28;45464;-58
2022/04/26 03:51:54;;;;;;;;;21.75;20.25;;;;;11.17;41.88;101079.03;4983350;28;45409;-58
2022/04/26 03:54:24;;;;;;;;;27.50;23.50;;;;;11.16;41.95;101077.31;4982987;28;45314;-57
2022/04/26 03:56:50;;;;;;;;;24.50;22.75;;;;;11.14;41.83;101079.06;4983268;28;46372;-57
2022/04/26 03:59:16;;;;;;;;;25.00;22.75;;;;;11.13;41.98;101077.34;4982831;28;45219;-57
2022/04/26 04:01:42;;;;;;;;;22.00;22.00;;;;;11.11;42.07;101079.13;4982599;28;45317;-58
2022/04/26 04:04:07;;;;;;;;;27.00;25.00;;;;;11.06;42.16;101073.91;4982745;28;45354;-57
2022/04/26 04:06:33;;;;;;;;;23.75;19.75;;;;;11.09;42.11;101075.63;4983031;28;45191;-57
2022/04/26 04:08:59;;;;;;;;;32.75;25.25;;;;;11.09;42.19;101074.75;4982697;28;45273;-57
2022/04/26 04:11:24;;;;;;;;;28.00;26.75;;;;;11.08;42.17;101086.16;4983060;28;45338;-57
2022/04/26 04:13:50;;;;;;;;;26.25;24.00;;;;;11.05;42.29;101084.44;4982843;28;45255;-58
2022/04/26 04:16:15;;;;;;;;;22.00;21.75;;;;;11.04;42.12;101094.09;4982420;28;45314;-57
2022/04/26 04:21:25;;;;;;;;;23.00;22.75;;;;;11.01;42.20;101091.47;4982725;28;45337;-57
2022/04/26 04:23:50;;;;;;;;;29.25;25.75;;;;;11.00;42.43;101097.63;4980021;28;45329;-57
2022/04/26 04:26:16;;;;;;;;;27.75;22.75;;;;;10.99;42.44;101103.81;4976447;28;45317;-57
2022/04/26 04:28:41;;;;;;;;;26.50;26.50;;;;;10.96;42.52;101098.56;4982711;28;45322;-58
2022/04/26 04:31:09;;;;;;;;;28.75;25.75;;;;;10.98;42.55;101109.94;4982127;28;45458;-58
2022/04/26 04:33:35;;;;;;;;;53.50;44.50;;;;;10.96;42.27;101113.47;4982725;28;45215;-57
2022/04/26 04:36:01;;;;;;;;;34.50;30.25;;;;;10.95;42.71;101112.59;4962318;28;47356;-57
2022/04/26 04:38:26;;;;;;;;;28.75;25.75;;;;;10.96;42.50;101108.22;4982677;28;45207;-57
2022/04/26 04:40:53;;;;;;;;;33.00;27.00;;;;;10.95;42.50;101114.34;4982347;28;45361;-57
2022/04/26 04:43:19;;;;;;;;;31.50;28.50;;;;;10.93;42.68;101113.47;4982520;28;45219;-58
2022/04/26 04:45:44;;;;;;;;;22.00;21.50;;;;;10.93;42.58;101122.25;4981306;28;45436;-58
2022/04/26 04:48:09;;;;;;;;;24.25;22.75;;;;;10.90;42.78;101124.91;4982465;28;45417;-58
2022/04/26 04:50:35;;;;;;;;;35.00;30.50;;;;;10.91;42.61;101124.03;4981060;28;45312;-58
2022/04/26 04:53:01;;;;;;;;;32.50;29.25;;;;;10.91;42.51;101131.91;4982297;28;45395;-58
2022/04/26 04:55:27;;;;;;;;;32.50;28.75;;;;;10.90;42.87;101132.78;4982018;28;45282;-58
2022/04/26 04:57:52;;;;;;;;;31.25;27.25;;;;;10.92;42.95;101138.03;4982227;28;45315;-58
2022/04/26 05:00:18;;;;;;;;;25.00;25.00;;;;;10.89;43.03;101137.19;4982189;28;45487;-58
2022/04/26 05:02:43;;;;;;;;;25.00;23.75;;;;;10.92;42.92;101148.53;4982080;28;45519;-58
2022/04/26 05:05:09;;;;;;;;;36.50;31.25;;;;;10.92;42.95;101144.19;4982062;28;45448;-58
2022/04/26 05:07:38;;;;;;;;;34.00;29.25;;;;;10.92;43.07;101148.53;4982204;28;45237;-58
2022/04/26 05:10:05;;;;;;;;;28.25;28.25;;;;;10.89;43.13;101152.97;4982062;28;45174;-58
2022/04/26 05:12:30;;;;;;;;;34.50;31.25;;;;;10.86;43.25;101155.59;4982053;28;45335;-58
2022/04/26 05:14:56;;;;;;;;;30.00;25.75;;;;;10.86;43.17;101158.25;4980316;28;47158;-58
2022/04/26 05:17:21;;;;;;;;;34.25;31.75;;;;;10.80;43.25;101153.03;4982076;28;45322;-58
2022/04/26 05:19:46;;;;;;;;;31.50;29.50;;;;;10.89;43.26;101165.22;4981969;28;45369;-58
2022/04/26 05:22:14;;;;;;;;;29.75;28.25;;;;;10.89;43.05;101167.84;4981940;28;45297;-58
2022/04/26 05:24:58;;;;;;;;;28.75;26.25;;;;;10.89;43.15;101176.63;4972496;28;45480;-57
2022/04/26 05:27:26;;;;;;;;;34.75;31.25;;;;;10.90;43.02;101180.13;4981794;28;45347;-58
2022/04/26 05:29:52;;;;;;;;;31.25;28.75;;;;;10.89;43.25;101175.75;4981523;28;45430;-57
2022/04/26 05:32:21;;;;;;;;;30.00;24.25;;;;;10.89;43.29;101181.00;4981481;28;45397;-57
2022/04/26 05:34:53;;;;;;;;;36.50;33.75;;;;;10.89;43.38;101175.75;4981550;28;46111;-58
2022/04/26 05:37:19;;;;;;;;;38.50;31.75;;;;;10.93;43.45;101185.38;4981872;28;45468;-57
2022/04/26 05:39:44;;;;;;;;;31.25;29.75;;;;;10.92;43.33;101191.50;4980227;28;45468;-57
2022/04/26 05:42:09;;;;;;;;;33.50;28.75;;;;;10.94;43.36;101187.09;4980157;28;45648;-58
2022/04/26 05:44:38;;;;;;;;;37.50;30.75;;;;;10.95;43.46;101194.09;4981058;28;45376;-58
2022/04/26 05:47:03;;;;;;;;;36.50;33.25;;;;;10.94;43.71;101202.88;4981461;28;45275;-58
2022/04/26 05:49:30;;;;;;;;;33.25;30.50;;;;;10.99;43.69;101202.84;4981634;28;45258;-57
2022/04/26 05:51:55;;;;;;;;;38.75;30.25;;;;;11.01;43.76;101199.31;4981511;28;45449;-58
2022/04/26 05:54:20;;;;;;;;;30.00;29.00;;;;;11.06;43.67;101207.16;4981171;28;45378;-57
2022/04/26 05:56:46;;;;;;;;;36.50;31.75;;;;;11.10;43.72;101214.13;4980201;28;45263;-57
2022/04/26 05:59:11;;;;;;;;;39.50;33.50;;;;;11.14;43.91;101210.59;4980121;28;45556;-58
2022/04/26 06:01:37;;;;;;;;;30.00;27.50;;;;;11.18;43.85;101214.06;4981063;28;45263;-57
2022/04/26 06:04:02;;;;;;;;;41.00;34.00;;;;;11.20;44.00;101210.53;4981018;28;45490;-56
2022/04/26 06:06:28;;;;;;;;;38.50;31.75;;;;;11.26;44.00;101209.63;4981203;28;45225;-56
2022/04/26 06:08:53;;;;;;;;;37.25;32.50;;;;;11.30;44.00;101216.59;4981243;28;45163;-56
2022/04/26 06:11:19;;;;;;;;;37.50;33.25;;;;;11.33;43.96;101207.78;4979743;28;45596;-56
2022/04/26 06:13:44;;;;;;;;;40.50;33.00;;;;;11.42;43.89;101210.34;4980935;28;46144;-56
2022/04/26 06:16:10;;;;;;;;;40.00;32.75;;;;;11.46;44.07;101200.63;4980966;28;45336;-56
2022/04/26 06:18:35;;;;;;;;;37.50;33.25;;;;;11.54;44.07;101210.19;4981090;28;45317;-57
2022/04/26 06:21:01;;;;;;;;;45.75;36.75;;;;;11.56;44.14;101202.31;4980826;28;45362;-57
2022/04/26 06:23:26;;;;;;;;;48.75;36.25;;;;;11.67;44.06;101208.31;4980739;28;47149;-57
2022/04/26 06:25:52;;;;;;;;;38.75;32.50;;;;;11.76;44.13;101217.88;4980683;28;45250;-56
2022/04/26 06:28:17;;;;;;;;;48.50;38.00;;;;;11.82;44.29;101209.91;4979555;28;45334;-57
2022/04/26 06:30:42;;;;;;;;;46.25;37.00;;;;;11.88;44.15;101214.22;4979228;28;45455;-57
2022/04/26 06:33:08;;;;;;;;;47.75;38.75;;;;;11.95;43.98;101213.25;4980139;28;46047;-56
2022/04/26 06:35:33;;;;;;;;;47.00;36.50;;;;;12.02;44.17;101208.81;4980590;28;45594;-56
2022/04/26 06:37:59;;;;;;;;;46.00;37.75;;;;;12.09;44.11;101222.75;4980791;28;45365;-56
2022/04/26 06:40:26;;;;;;;;;45.00;37.00;;;;;12.12;44.40;101220.09;4980607;28;45579;-56
2022/04/26 06:42:51;;;;;;;;;39.00;34.75;;;;;12.17;44.10;101226.19;4980634;28;47366;-58
2022/04/26 06:45:17;;;;;;;;;45.25;37.25;;;;;12.20;44.19;101223.53;4980420;28;45260;-57
2022/04/26 06:47:43;;;;;;;;;46.50;37.00;;;;;12.23;43.97;101231.38;4979305;28;45363;-56
2022/04/26 06:50:10;;;;;;;;;43.50;36.25;;;;;12.28;44.05;101236.59;4980724;28;45235;-57
2022/04/26 06:52:35;;;;;;;;;39.75;32.75;;;;;12.28;43.94;101232.19;4980336;28;45441;-57
2022/04/26 06:55:01;;;;;;;;;43.75;34.00;;;;;12.30;43.99;101234.78;4979022;28;45377;-57
2022/04/26 06:57:26;;;;;;;;;46.50;36.25;;;;;12.31;43.87;101229.53;4979335;28;45425;-57
2022/04/26 06:59:51;;;;;;;;;44.75;35.75;;;;;12.37;43.98;101235.59;4980166;28;45535;-57
2022/04/26 07:02:17;;;;;;;;;47.00;38.50;;;;;12.40;43.92;101231.16;4978879;28;46358;-57
2022/04/26 07:04:42;;;;;;;;;45.50;36.25;;;;;12.46;43.91;101232.81;4980368;28;45226;-57
2022/04/26 07:07:08;;;;;;;;;51.25;40.00;;;;;12.51;44.12;101236.25;4979331;28;45399;-57
2022/04/26 07:09:33;;;;;;;;;43.50;34.75;;;;;12.56;44.06;101230.94;4983425;28;45548;-57
2022/04/26 07:11:58;;;;;;;;;46.25;38.00;;;;;12.62;44.10;101238.75;4983664;28;45318;-57
2022/04/26 07:14:24;;;;;;;;;39.25;32.00;;;;;12.65;44.13;101244.84;4983785;28;45290;-57
2022/04/26 07:16:49;;;;;;;;;44.50;34.75;;;;;12.67;44.09;101243.03;4983633;28;45442;-57
2022/04/26 07:19:17;;;;;;;;;46.00;36.25;;;;;12.78;44.01;101247.28;4983719;28;45241;-57
2022/04/26 07:21:44;;;;;;;;;48.25;38.25;;;;;12.81;43.94;101253.38;4983452;28;47184;-57
2022/04/26 07:24:12;;;;;;;;;45.00;37.25;;;;;12.89;44.19;101247.97;4978129;28;45310;-56
2022/04/26 07:26:37;;;;;;;;;48.75;38.25;;;;;12.98;44.14;101252.25;4980617;28;45353;-56
2022/04/26 07:29:03;;;;;;;;;45.25;35.00;;;;;13.06;44.17;101244.22;4983596;28;45391;-56
2022/04/26 07:31:29;;;;;;;;;39.00;33.50;;;;;13.19;43.90;101244.88;4982750;28;46119;-56
2022/04/26 07:36:39;;;;;;;;;42.50;35.25;;;;;13.33;44.11;101256.94;4983547;28;45426;-59
2022/04/26 07:39:06;;;;;;;;;43.25;37.25;;;;;13.39;43.82;101253.34;4983346;28;45571;-57
2022/04/26 07:41:31;;;;;;;;;40.75;35.25;;;;;13.43;43.82;101257.69;4983071;28;46058;-57
2022/04/26 07:43:57;;;;;;;;;44.25;36.50;;;;;13.53;43.68;101262.81;4983471;28;45501;-57
2022/04/26 07:46:22;;;;;;;;;42.25;35.75;;;;;13.54;43.71;101260.13;4983202;28;45281;-57
2022/04/26 07:48:48;;;;;;;;;43.00;35.25;;;;;13.55;43.78;101261.88;4983411;28;45330;-57
2022/04/26 07:51:13;;;;;;;;;41.75;35.00;;;;;13.62;43.65;101267.91;4983061;28;45469;-57
2022/04/26 07:53:39;;;;;;;;;46.50;38.25;;;;;13.65;43.63;101275.78;4983274;28;45237;-56
2022/04/26 07:56:05;;;;;;;;;44.75;37.50;;;;;13.72;43.66;101282.69;4983234;28;45424;-57
2022/04/26 07:58:32;;;;;;;;;47.00;39.25;;;;;13.79;43.80;101280.81;4983163;28;45432;-57
2022/04/26 08:00:57;;;;;;;;;50.50;41.75;;;;;13.86;43.54;101279.78;4982595;28;46406;-57
2022/04/26 08:03:23;;;;;;;;;40.50;34.50;;;;;13.94;43.57;101283.16;4983202;28;45263;-56
2022/04/26 08:05:49;;;;;;;;;47.00;37.25;;;;;14.06;44.11;101286.44;4983130;28;45349;-57
2022/04/26 08:08:15;;;;;;;;;45.75;36.50;;;;;14.17;43.93;101292.38;4983099;28;45254;-57
2022/04/26 08:10:40;;;;;;;;;35.75;32.25;;;;;14.27;43.77;101291.28;4982716;28;46459;-57
2022/04/26 08:13:06;;;;;;;;;43.25;35.75;;;;;14.36;43.43;101300.78;4982821;28;45265;-57
2022/04/26 08:15:31;;;;;;;;;45.00;36.75;;;;;14.42;43.68;101310.38;4982703;28;45206;-59
2022/04/26 08:17:56;;;;;;;;;46.00;35.75;;;;;14.46;43.51;101312.06;4982828;28;45640;-56
2022/04/26 08:20:24;;;;;;;;;37.75;33.75;;;;;14.48;43.09;101291.75;4981588;28;45246;-56
2022/04/26 08:22:50;;;;;;;;;42.50;34.25;;;;;14.53;42.97;101303.09;4982738;28;45329;-56
2022/04/26 08:28:00;;;;;;;;;46.25;37.00;;;;;14.59;43.42;101295.03;4982674;28;45221;-56
2022/04/26 08:30:26;;;;;;;;;41.25;34.00;;;;;14.63;43.44;101299.34;4982255;28;46036;-58
2022/04/26 08:32:51;;;;;;;;;44.25;37.00;;;;;14.72;43.07;101306.22;4982125;28;45397;-58
2022/04/26 08:35:20;;;;;;;;;42.00;35.75;;;;;14.78;43.37;101307.88;4982635;28;45397;-56
2022/04/26 08:37:46;;;;;;;;;42.00;36.75;;;;;14.82;43.12;101312.19;4981111;28;45199;-59
2022/04/26 08:40:11;;;;;;;;;44.75;35.75;;;;;14.90;43.33;101317.31;4982254;28;46307;-56
2022/04/26 08:42:37;;;;;;;;;36.75;32.00;;;;;14.95;43.21;101318.94;4980926;28;45246;-56
2022/04/26 08:45:05;;;;;;;;;42.00;35.25;;;;;15.01;42.95;101314.41;4981161;28;45462;-58
2022/04/26 08:52:59;;;;;;;;;42.25;35.75;;;;;15.19;43.05;101335.13;4982250;28;45219;-57
2022/04/26 08:55:24;;;;;;;;;47.25;34.50;;;;;15.24;42.70;101335.91;4982217;28;45294;-56
2022/04/26 08:57:51;;;;;;;;;34.00;33.25;;;;;15.29;42.69;101343.72;4982159;28;45499;-56
2022/04/26 09:00:17;;;;;;;;;45.00;33.25;;;;;15.31;42.49;101343.69;4981811;28;46360;-58
2022/04/26 09:02:42;;;;;;;;;47.75;36.00;;;;;15.40;42.26;101338.19;4981863;28;45354;-56
2022/04/26 09:05:13;;;;;;;;;45.50;36.25;;;;;15.42;42.84;101349.59;4982211;28;45270;-56
2022/04/26 09:07:40;;;;;;;;;39.75;34.25;;;;;15.46;42.68;101345.09;4982156;28;45379;-56
2022/04/26 09:10:10;;;;;;;;;43.50;36.50;;;;;15.52;42.64;101347.59;4981617;28;45567;-57
2022/04/26 09:13:07;;;;;;;;;42.00;33.25;;;;;15.60;42.31;101350.91;4982061;28;45453;-57
2022/04/26 09:15:39;;;;;;;;;44.50;39.25;;;;;15.65;42.50;101353.47;4981643;28;45313;-57
2022/04/26 09:18:20;;;;;;;;;40.50;36.75;;;;;15.73;42.51;101354.97;4980707;28;45494;-57
2022/04/26 09:20:48;;;;;;;;;45.00;35.50;;;;;15.79;41.97;101361.91;4981512;28;46072;-57
2022/04/26 09:23:21;;;;;;;;;45.50;37.50;;;;;15.88;42.02;101371.44;4981521;28;45317;-57
2022/04/26 09:25:49;;;;;;;;;39.75;35.75;;;;;15.96;41.81;101369.47;4980403;28;45551;-57
2022/04/26 09:28:21;;;;;;;;;41.75;36.25;;;;;16.08;42.21;101374.41;4980395;28;45385;-57
2022/04/26 09:30:47;;;;;;;;;49.75;39.25;;;;;16.18;42.16;101371.53;4979672;28;47082;-58
2022/04/26 09:33:29;;;;;;;;;45.75;35.25;;;;;16.31;42.09;101366.75;4981394;28;45337;-57
2022/04/26 09:36:02;;;;;;;;;47.00;36.00;;;;;16.45;41.76;101376.94;4981856;28;45420;-57
2022/04/26 09:38:31;;;;;;;;;39.75;33.00;;;;;16.56;41.98;101374.84;4981728;28;45380;-57
2022/04/26 09:41:05;;;;;;;;;44.00;35.50;;;;;16.68;41.87;101376.31;4981158;28;47415;-57
2022/04/26 09:43:32;;;;;;;;;42.00;34.00;;;;;16.74;41.82;101373.44;4980302;28;45358;-57
2022/04/26 09:45:59;;;;;;;;;42.75;36.00;;;;;16.80;41.32;101380.34;4980078;28;45491;-57
2022/04/26 09:48:29;;;;;;;;;40.50;36.50;;;;;16.82;41.59;101378.53;4981376;28;45353;-57
2022/04/26 09:50:56;;;;;;;;;40.00;35.00;;;;;16.83;41.38;101380.25;4979902;28;46357;-57
2022/04/26 09:53:22;;;;;;;;;46.00;35.50;;;;;16.79;41.21;101376.84;4981343;28;45333;-57
2022/04/26 09:55:48;;;;;;;;;43.00;34.50;;;;;16.80;41.27;101378.56;4979893;28;45371;-57
2022/04/26 09:58:19;;;;;;;;;41.25;36.75;;;;;16.79;41.00;101387.47;4981382;28;45322;-57
2022/04/26 10:00:47;;;;;;;;;39.00;33.25;;;;;16.77;41.27;101388.44;4980724;28;46189;-57
2022/04/26 10:03:23;;;;;;;;;42.00;36.25;;;;;16.75;41.00;101388.44;4981347;28;45425;-58
2022/04/26 10:06:00;;;;;;;;;42.25;35.75;;;;;16.73;40.99;101391.16;4979976;28;45424;-57
2022/04/26 10:08:29;;;;;;;;;40.50;30.75;;;;;16.70;40.97;101388.59;4981140;28;45484;-58
2022/04/26 10:10:55;;;;;;;;;35.00;30.50;;;;;16.73;41.07;101392.94;4980856;28;46504;-57
2022/04/26 10:13:34;;;;;;;;;39.25;32.75;;;;;16.74;40.94;101392.00;4980940;28;45319;-57
2022/04/26 10:16:11;;;;;;;;;45.00;35.50;;;;;16.76;40.80;101384.88;4979479;28;45261;-57
2022/04/26 10:18:44;;;;;;;;;46.75;36.25;;;;;16.82;40.83;101391.81;4980744;28;45271;-57
2022/04/26 10:21:30;;;;;;;;;45.50;37.25;;;;;16.88;41.00;101391.63;4980625;28;45437;-57
2022/04/26 10:23:56;;;;;;;;;35.75;34.00;;;;;17.00;40.99;101385.09;4980498;28;45556;-57
2022/04/26 10:26:25;;;;;;;;;34.25;29.25;;;;;17.14;41.09;101393.47;4980850;28;45330;-57
2022/04/26 10:28:55;;;;;;;;;37.50;33.25;;;;;17.35;41.31;101393.75;4980816;28;45397;-57
2022/04/26 10:31:35;;;;;;;;;42.75;36.00;;;;;17.65;41.15;101391.84;4979975;28;45279;-56
2022/04/26 10:34:16;;;;;;;;;44.00;37.75;;;;;17.95;41.05;101394.44;4980657;28;45401;-57
2022/04/26 10:36:43;;;;;;;;;45.50;36.25;;;;;18.27;40.84;101396.88;4980601;28;45222;-56
2022/04/26 10:39:08;;;;;;;;;35.25;30.75;;;;;18.57;40.76;101405.50;4980514;28;45238;-59
2022/04/26 10:41:35;;;;;;;;;37.00;32.75;;;;;18.83;40.96;101404.53;4980472;28;45277;-57
2022/04/26 10:44:43;;;;;;;;;33.25;31.50;;;;;19.13;40.58;101398.97;4978573;28;45469;-57
2022/04/26 10:47:09;;;;;;;;;35.25;30.25;;;;;19.36;40.67;101405.19;4975498;28;45287;-57
2022/04/26 10:49:43;;;;;;;;;37.25;33.25;;;;;19.54;40.25;101398.22;4980493;28;45495;-59
2022/04/26 10:52:14;;;;;;;;;34.25;30.25;;;;;19.69;39.95;101410.03;4980509;28;45456;-58
2022/04/26 10:54:48;;;;;;;;;35.50;32.75;;;;;19.75;39.59;101401.78;4980430;28;45393;-57
2022/04/26 10:57:31;;;;;;;;;31.50;30.75;;;;;19.80;39.48;101409.59;4980364;28;45323;-57
2022/04/26 10:59:59;;;;;;;;;37.75;31.00;;;;;19.80;39.49;101396.28;4980172;28;45183;-57
2022/04/26 11:02:27;;;;;;;;;33.25;29.25;;;;;19.79;39.41;101398.03;4980087;28;46322;-57
2022/04/26 11:05:25;;;;;;;;;40.25;33.25;;;;;19.77;39.16;101409.72;4980378;28;45374;-57
2022/04/26 11:07:51;;;;;;;;;32.25;31.75;;;;;19.72;39.03;101412.59;4980092;28;45216;-57
2022/04/26 11:10:27;;;;;;;;;40.50;32.50;;;;;19.66;38.56;101407.50;4980028;28;45627;-57
2022/04/26 11:12:55;;;;;;;;;33.00;29.50;;;;;19.60;38.83;101403.28;4978885;28;47052;-58
2022/04/26 11:15:23;;;;;;;;;36.25;31.50;;;;;19.52;38.66;101394.75;4979846;28;45419;-57
2022/04/26 11:17:50;;;;;;;;;30.00;29.00;;;;;19.46;38.36;101398.53;4980279;28;45240;-57
2022/04/26 11:20:24;;;;;;;;;34.50;29.00;;;;;19.41;39.05;101400.53;4978616;28;45418;-58
2022/04/26 11:22:53;;;;;;;;;27.00;24.75;;;;;19.40;38.76;101401.44;4979685;28;47178;-58
2022/04/26 11:28:11;;;;;;;;;28.75;25.00;;;;;19.40;38.76;101398.78;4979937;28;45343;-57
2022/04/26 11:30:54;;;;;;;;;32.00;27.25;;;;;19.45;38.35;101404.78;4979443;28;45468;-58
2022/04/26 11:33:22;;;;;;;;;32.50;29.50;;;;;19.51;38.59;101405.47;4979478;28;45522;-57
2022/04/26 11:36:00;;;;;;;;;25.75;25.25;;;;;19.58;38.80;101398.97;4979906;28;45182;-58
2022/04/26 11:38:27;;;;;;;;;26.75;26.50;;;;;19.63;38.09;101399.63;4980007;28;45338;-58
2022/04/26 11:40:54;;;;;;;;;34.50;31.25;;;;;19.74;38.56;101407.19;4979452;28;45453;-58
2022/04/26 11:43:22;;;;;;;;;34.25;29.25;;;;;19.83;38.36;101405.97;4979770;28;46200;-58
2022/04/26 11:45:50;;;;;;;;;31.25;28.75;;;;;19.85;38.24;101410.31;4979548;28;45563;-58
2022/04/26 11:48:20;;;;;;;;;34.00;30.50;;;;;19.92;38.08;101413.56;4979830;28;45308;-59
2022/04/26 11:50:52;;;;;;;;;34.00;31.50;;;;;19.89;37.85;101403.91;4979428;28;45420;-58
2022/04/26 11:53:22;;;;;;;;;33.50;31.25;;;;;20.02;37.79;101404.22;4979712;28;46290;-58
2022/04/26 11:55:56;;;;;;;;;28.00;24.25;;;;;20.16;38.10;101416.97;4982935;28;45285;-58
2022/04/26 11:58:23;;;;;;;;;33.00;30.00;;;;;20.37;38.03;101407.13;4983116;28;45424;-58
2022/04/26 12:01:05;;;;;;;;;27.50;26.00;;;;;20.62;37.98;101392.69;4982433;28;45337;-59
2022/04/26 12:03:49;;;;;;;;;28.00;25.00;;;;;20.91;38.59;101398.50;4982888;28;45263;-59
2022/04/26 12:06:20;;;;;;;;;29.25;26.00;;;;;21.10;37.69;101404.69;4982925;28;45308;-59
2022/04/26 12:08:48;;;;;;;;;33.50;28.50;;;;;21.19;37.60;101397.19;4982847;28;45363;-58
2022/04/26 12:11:20;;;;;;;;;31.25;26.50;;;;;21.24;37.34;101401.38;4982574;28;45484;-58
2022/04/26 12:13:56;;;;;;;;;31.00;27.75;;;;;21.23;37.05;101398.75;4981414;28;47070;-58
2022/04/26 12:16:22;;;;;;;;;31.00;26.25;;;;;21.21;37.33;101406.00;4981165;28;45455;-58
2022/04/26 12:18:52;;;;;;;;;34.50;31.00;;;;;21.14;36.91;101409.91;4982825;28;45416;-58
2022/04/26 12:21:17;;;;;;;;;34.50;30.25;;;;;21.04;37.14;101407.69;4982654;28;45538;-59
2022/04/26 12:23:43;;;;;;;;;30.75;22.50;;;;;20.94;36.90;101419.72;4982594;28;45159;-58
2022/04/26 12:26:11;;;;;;;;;29.75;27.25;;;;;20.81;37.12;101402.56;4982490;28;45343;-58
2022/04/26 12:28:49;;;;;;;;;34.00;30.50;;;;;20.75;36.88;101409.03;4981307;28;45351;-58
2022/04/26 12:31:28;;;;;;;;;30.50;27.50;;;;;20.69;37.22;101409.28;4980562;28;45871;-57
2022/04/26 12:34:14;;;;;;;;;33.50;29.00;;;;;20.71;37.12;101415.47;4982172;28;46718;-59
2022/04/26 12:37:25;;;;;;;;;38.75;33.25;;;;;20.83;37.17;101406.00;4982334;28;45286;-57
2022/04/26 12:39:53;;;;;;;;;29.75;28.00;;;;;20.93;37.35;101400.16;4977451;28;45264;-57
2022/04/26 12:42:28;;;;;;;;;36.25;27.50;;;;;21.06;37.48;101396.91;4980892;28;45251;-58
2022/04/26 12:44:55;;;;;;;;;29.50;24.25;;;;;21.28;37.44;101391.38;4982054;28;46247;-57
2022/04/26 12:52:53;;;;;;;;;28.00;27.50;;;;;22.93;37.59;101395.34;4982273;28;45306;-58
2022/04/26 12:55:41;;;;;;;;;28.75;26.75;;;;;23.59;37.66;101398.75;4981973;28;46363;-59
2022/04/26 12:58:09;;;;;;;;;29.00;27.25;;;;;24.00;37.16;101394.59;4982037;28;45271;-59
2022/04/26 13:00:43;;;;;;;;;35.75;27.75;;;;;24.35;37.02;101394.22;4981768;28;45377;-59
2022/04/26 13:03:11;;;;;;;;;25.75;23.25;;;;;24.77;36.80;101394.38;4981944;28;45484;-59
2022/04/26 13:05:46;;;;;;;;;26.75;22.00;;;;;25.26;37.06;101385.78;4981296;28;45425;-58
2022/04/26 13:08:16;;;;;;;;;26.00;25.00;;;;;25.73;37.05;101386.25;4981808;28;45389;-58
2022/04/26 13:10:43;;;;;;;;;18.50;18.50;;;;;26.14;36.09;101383.53;4981830;28;45290;-59
2022/04/26 13:13:10;;;;;;;;;26.75;22.00;;;;;26.37;35.70;101387.31;4981774;28;45513;-59
2022/04/26 13:15:36;;;;;;;;;18.00;17.00;;;;;26.51;35.92;101389.88;4981465;28;45508;-58
2022/04/26 13:18:03;;;;;;;;;21.75;20.50;;;;;26.49;34.85;101356.81;4980492;28;45324;-58
2022/04/26 13:20:30;;;;;;;;;22.25;19.75;;;;;26.65;34.73;101378.09;4981873;28;45257;-58
2022/04/26 13:22:56;;;;;;;;;24.25;21.00;;;;;26.74;34.41;101377.47;4981649;28;45259;-58
2022/04/26 13:25:21;;;;;;;;;22.00;20.25;;;;;26.95;35.10;101376.84;4972812;28;45263;-59
2022/04/26 13:27:48;;;;;;;;;25.75;20.75;;;;;27.27;34.42;101386.22;4981765;28;45204;-59
2022/04/26 13:30:14;;;;;;;;;13.25;11.25;;;;;27.50;34.67;101377.28;4981432;28;45440;-58
2022/04/26 13:32:40;;;;;;;;;18.00;17.50;;;;;27.72;34.31;101376.50;4981240;28;45338;-58
2022/04/26 13:35:05;;;;;;;;;18.25;17.00;;;;;27.82;33.90;101381.19;4981454;28;45350;-58
2022/04/26 13:37:32;;;;;;;;;15.00;14.50;;;;;27.83;33.44;101382.91;4981527;28;45379;-58
2022/04/26 13:40:00;;;;;;;;;17.00;17.00;;;;;27.74;33.50;101377.22;4981411;28;45388;-58
2022/04/26 13:42:27;;;;;;;;;21.00;19.25;;;;;27.64;33.08;101376.22;4981299;28;45398;-58
2022/04/26 13:44:53;;;;;;;;;21.75;19.75;;;;;27.64;33.30;101381.63;4981044;28;46315;-58
2022/04/26 13:47:19;;;;;;;;;21.25;18.00;;;;;27.56;33.15;101367.88;4981433;28;45242;-58
2022/04/26 13:49:44;;;;;;;;;20.75;17.75;;;;;27.55;33.06;101368.84;4981461;28;45168;-58
2022/04/26 13:52:10;;;;;;;;;18.00;17.75;;;;;27.67;33.10;101372.44;4979996;28;45354;-58
2022/04/26 13:54:36;;;;;;;;;19.50;18.00;;;;;27.79;32.62;101376.88;4981192;28;45975;-58
2022/04/26 13:57:03;;;;;;;;;18.75;18.25;;;;;27.85;32.47;101375.56;4981284;28;45347;-58
2022/04/26 13:59:28;;;;;;;;;21.00;20.00;;;;;27.81;32.55;101364.13;4981314;28;45311;-57
2022/04/26 14:01:54;;;;;;;;;17.25;15.00;;;;;27.71;32.64;101358.59;4981042;28;45318;-58
2022/04/26 14:04:23;;;;;;;;;14.75;14.00;;;;;27.57;32.03;101364.16;4981269;28;46361;-58
2022/04/26 14:06:49;;;;;;;;;17.50;14.75;;;;;27.61;31.94;101370.19;4979862;28;45269;-58
2022/04/26 14:09:17;;;;;;;;;16.00;14.25;;;;;27.72;32.19;101359.44;4979770;28;45183;-58
2022/04/26 14:11:42;;;;;;;;;16.25;15.75;;;;;27.87;32.25;101355.56;4980999;28;45254;-58
2022/04/26 14:22:20;;;;;;;;;14.00;13.00;;;;;27.30;31.07;101346.38;4980710;28;45381;-59
2022/04/26 14:24:48;;;;;;;;;16.75;14.00;;;;;27.22;31.35;101355.06;4971490;28;46135;-58
2022/04/26 14:27:13;;;;;;;;;18.75;14.75;;;;;27.15;31.49;101351.09;4980755;28;45264;-58
2022/04/26 14:29:39;;;;;;;;;15.00;13.25;;;;;27.11;32.03;101352.31;4980070;28;45326;-59
2022/04/26 14:32:05;;;;;;;;;13.50;13.50;;;;;26.95;31.27;101340.97;4979992;28;45334;-57
2022/04/26 14:34:32;;;;;;;;;17.00;15.75;;;;;26.80;31.09;101357.28;4980198;28;45425;-59
2022/04/26 14:36:58;;;;;;;;;15.50;14.25;;;;;26.58;30.99;101355.28;4979244;28;45215;-58
2022/04/26 14:39:24;;;;;;;;;14.50;14.25;;;;;26.32;30.66;101359.84;4980445;28;45322;-58
2022/04/26 14:41:49;;;;;;;;;15.00;15.00;;;;;26.03;31.23;101357.34;4980496;28;45214;-58
2022/04/26 14:44:15;;;;;;;;;12.75;12.75;;;;;25.78;31.19;101357.19;4980217;28;46118;-58
2022/04/26 14:46:40;;;;;;;;;12.00;12.00;;;;;25.52;31.00;101359.00;4979336;28;45848;-58
2022/04/26 14:49:06;;;;;;;;;16.50;13.50;;;;;25.27;31.01;101352.56;4980723;28;45355;-58
2022/04/26 14:51:32;;;;;;;;;12.75;12.75;;;;;25.23;31.71;101353.72;4980398;28;45357;-60
2022/04/26 14:53:58;;;;;;;;;12.50;11.25;;;;;25.37;31.79;101357.34;4980225;28;45424;-59
2022/04/26 14:56:23;;;;;;;;;11.75;11.75;;;;;25.62;31.70;101341.25;4980375;28;45313;-58
2022/04/26 14:58:51;;;;;;;;;14.00;14.00;;;;;26.14;32.36;101351.22;4980503;28;45864;-59
2022/04/26 15:01:17;;;;;;;;;10.25;10.25;;;;;26.61;32.00;101353.19;4980099;28;45322;-59
2022/04/26 15:03:46;;;;;;;;;14.50;12.50;;;;;26.96;32.10;101354.31;4980067;28;46059;-59
2022/04/26 15:06:12;;;;;;;;;15.00;15.00;;;;;27.06;31.24;101349.94;4979081;28;45706;-59
2022/04/26 15:11:22;;;;;;;;;9.75;9.75;;;;;26.85;31.30;101354.25;4980174;28;45437;-57
2022/04/26 15:16:37;;;;;;;;;12.50;9.75;;;;;26.28;31.02;101351.97;4980276;28;45389;-57
2022/04/26 15:19:06;;;;;;;;;13.50;12.75;;;;;25.96;31.05;101349.69;4980277;28;45758;-57
2022/04/26 15:21:32;;;;;;;;;11.75;11.75;;;;;25.63;30.83;101347.50;4979871;28;45317;-58
2022/04/26 15:23:59;;;;;;;;;9.00;9.00;;;;;25.31;31.00;101348.69;4976080;28;46076;-57
2022/04/26 15:26:25;;;;;;;;;10.00;9.00;;;;;25.02;30.58;101350.63;4975472;28;45503;-57